createdAt,value
2022-09-27T00:02:18.843Z,10.10
2022-09-27T00:04:45.493Z,10.10
2022-09-27T00:07:12.703Z,10.10
2022-09-27T00:09:39.436Z,10.10
2022-09-27T00:12:06.128Z,10.10
2022-09-27T00:14:33.090Z,10.10
2022-09-27T00:16:59.736Z,10.10
2022-09-27T00:19:26.958Z,10.00
2022-09-27T00:21:53.574Z,10.00
2022-09-27T00:24:22.618Z,10.10
2022-09-27T00:26:50.049Z,10.10
2022-09-27T00:29:18.653Z,10.00
2022-09-27T00:31:45.840Z,10.00
2022-09-27T00:34:21.839Z,10.00
2022-09-27T00:36:50.776Z,10.00
2022-09-27T00:39:17.938Z,10.00
2022-09-27T00:41:45.181Z,10.00
2022-09-27T00:44:26.961Z,10.00
2022-09-27T00:46:56.571Z,10.00
2022-09-27T00:49:33.156Z,10.00
2022-09-27T00:52:08.699Z,10.00
2022-09-27T00:54:38.808Z,10.00
2022-09-27T00:57:09.161Z,10.00
2022-09-27T00:59:43.592Z,10.00
2022-09-27T01:02:10.587Z,10.00
2022-09-27T01:04:39.563Z,10.00
2022-09-27T01:07:06.584Z,10.00
2022-09-27T01:09:34.866Z,10.00
2022-09-27T01:12:23.019Z,10.10
2022-09-27T01:15:01.678Z,10.10
2022-09-27T01:17:37.378Z,10.10
2022-09-27T01:20:31.450Z,10.10
2022-09-27T01:23:07.334Z,10.10
2022-09-27T01:25:58.721Z,10.00
2022-09-27T01:28:56.146Z,10.00
2022-09-27T01:31:22.792Z,10.10
2022-09-27T01:34:04.932Z,10.00
2022-09-27T01:37:03.105Z,10.00
2022-09-27T01:39:29.693Z,9.90
2022-09-27T01:42:22.410Z,9.90
2022-09-27T01:45:07.546Z,9.90
2022-09-27T01:47:59.471Z,9.90
2022-09-27T01:50:55.291Z,9.90
2022-09-27T01:53:33.549Z,9.90
2022-09-27T01:56:04.832Z,9.90
2022-09-27T01:58:49.054Z,9.90
2022-09-27T02:01:17.525Z,9.80
2022-09-27T02:03:48.868Z,9.80
2022-09-27T02:06:26.160Z,9.90
2022-09-27T02:09:40.298Z,9.80
2022-09-27T02:12:12.881Z,9.80
2022-09-27T02:14:48.689Z,9.80
2022-09-27T02:17:47.599Z,9.80
2022-09-27T02:20:22.064Z,9.80
2022-09-27T02:23:05.599Z,9.90
2022-09-27T02:25:45.390Z,9.90
2022-09-27T02:28:22.828Z,9.90
2022-09-27T02:30:49.876Z,9.80
2022-09-27T02:33:18.688Z,9.70
2022-09-27T02:35:46.332Z,9.80
2022-09-27T02:38:13.402Z,9.70
2022-09-27T02:40:45.993Z,9.70
2022-09-27T02:43:16.469Z,9.70
2022-09-27T02:46:06.245Z,9.70
2022-09-27T02:49:05.285Z,9.70
2022-09-27T02:51:56.172Z,9.70
2022-09-27T02:54:34.545Z,9.70
2022-09-27T02:57:10.533Z,9.70
2022-09-27T02:59:42.978Z,9.70
2022-09-27T03:02:28.820Z,9.80
2022-09-27T03:05:04.795Z,9.70
2022-09-27T03:07:32.074Z,9.70
2022-09-27T03:09:58.734Z,9.80
2022-09-27T03:12:28.608Z,9.70
2022-09-27T03:14:58.178Z,9.70
2022-09-27T03:17:25.192Z,9.70
2022-09-27T03:19:52.149Z,9.70
2022-09-27T03:22:19.086Z,9.80
2022-09-27T03:24:45.807Z,9.70
2022-09-27T03:27:12.494Z,9.80
2022-09-27T03:29:39.109Z,9.70
2022-09-27T03:32:05.758Z,9.70
2022-09-27T03:34:32.404Z,9.70
2022-09-27T03:36:59.108Z,9.80
2022-09-27T03:39:25.816Z,9.70
2022-09-27T03:41:53.113Z,9.70
2022-09-27T03:44:19.843Z,9.80
2022-09-27T03:46:49.481Z,9.80
2022-09-27T03:49:16.198Z,9.80
2022-09-27T03:51:43.198Z,9.80
2022-09-27T03:54:10.293Z,9.80
2022-09-27T03:56:36.978Z,9.80
2022-09-27T03:59:03.733Z,9.80
2022-09-27T04:01:30.621Z,9.80
2022-09-27T04:03:57.445Z,9.80
2022-09-27T04:06:24.241Z,9.80
2022-09-27T04:08:50.904Z,9.80
2022-09-27T04:11:17.569Z,9.70
2022-09-27T04:13:44.638Z,9.70
2022-09-27T04:16:11.430Z,9.70
2022-09-27T04:18:38.115Z,9.70
2022-09-27T04:21:04.940Z,9.60
2022-09-27T04:23:31.665Z,9.60
2022-09-27T04:25:58.385Z,9.60
2022-09-27T04:28:25.122Z,9.60
2022-09-27T04:30:51.796Z,9.60
2022-09-27T04:33:18.574Z,9.60
2022-09-27T04:36:03.977Z,9.60
2022-09-27T04:38:30.641Z,9.60
2022-09-27T04:40:57.420Z,9.50
2022-09-27T04:43:24.108Z,9.60
2022-09-27T04:45:50.795Z,9.50
2022-09-27T04:48:17.597Z,9.50
2022-09-27T04:50:44.271Z,9.50
2022-09-27T04:53:15.156Z,9.50
2022-09-27T04:55:46.512Z,9.50
2022-09-27T04:58:13.294Z,9.40
2022-09-27T05:00:42.018Z,9.40
2022-09-27T05:03:09.223Z,9.50
2022-09-27T05:05:35.939Z,9.50
2022-09-27T05:08:02.608Z,9.50
2022-09-27T05:10:29.255Z,9.40
2022-09-27T05:12:55.928Z,9.50
2022-09-27T05:15:23.069Z,9.50
2022-09-27T05:17:52.426Z,9.50
2022-09-27T05:20:19.612Z,9.50
2022-09-27T05:22:46.663Z,9.50
2022-09-27T05:25:13.435Z,9.50
2022-09-27T05:27:40.843Z,9.50
2022-09-27T05:30:08.381Z,9.50
2022-09-27T05:32:36.133Z,9.50
2022-09-27T05:35:02.794Z,9.50
2022-09-27T05:37:31.351Z,9.50
2022-09-27T05:39:57.998Z,9.60
2022-09-27T05:42:25.109Z,9.60
2022-09-27T05:44:52.315Z,9.60
2022-09-27T05:47:18.978Z,9.60
2022-09-27T05:49:45.617Z,9.60
2022-09-27T05:52:16.013Z,9.70
2022-09-27T05:54:44.181Z,9.70
2022-09-27T05:57:10.822Z,9.70
2022-09-27T05:59:37.443Z,9.70
2022-09-27T06:02:04.295Z,9.70
2022-09-27T06:04:31.044Z,9.60
2022-09-27T06:06:59.031Z,9.70
2022-09-27T06:09:27.415Z,9.80
2022-09-27T06:11:54.076Z,9.70
2022-09-27T06:14:20.915Z,9.70
2022-09-27T06:16:48.133Z,9.70
2022-09-27T06:19:15.115Z,9.70
2022-09-27T06:21:41.968Z,9.70
2022-09-27T06:24:08.703Z,9.70
2022-09-27T06:26:35.346Z,9.80
2022-09-27T06:29:02.035Z,9.70
2022-09-27T06:31:28.897Z,9.80
2022-09-27T06:33:55.508Z,9.70
2022-09-27T06:36:22.186Z,9.70
2022-09-27T06:38:49.733Z,9.70
2022-09-27T06:41:16.558Z,9.70
2022-09-27T06:43:43.294Z,9.60
2022-09-27T06:46:10.273Z,9.60
2022-09-27T06:48:38.463Z,9.60
2022-09-27T06:51:05.710Z,9.60
2022-09-27T06:53:32.784Z,9.60
2022-09-27T06:56:01.150Z,9.60
2022-09-27T06:58:47.520Z,9.60
2022-09-27T07:01:14.786Z,9.60
2022-09-27T07:03:44.490Z,9.60
2022-09-27T07:06:20.653Z,9.60
2022-09-27T07:08:52.124Z,9.60
2022-09-27T07:11:18.907Z,9.60
2022-09-27T07:13:45.777Z,9.60
2022-09-27T07:16:13.923Z,9.70
2022-09-27T07:18:41.946Z,9.80
2022-09-27T07:21:08.910Z,9.80
2022-09-27T07:23:37.053Z,9.80
2022-09-27T07:26:08.368Z,9.90
2022-09-27T07:28:35.422Z,10.00
2022-09-27T07:31:03.365Z,10.10
2022-09-27T07:33:30.773Z,10.20
2022-09-27T07:35:57.609Z,10.30
2022-09-27T07:38:24.823Z,10.40
2022-09-27T07:40:51.688Z,10.30
2022-09-27T07:43:19.531Z,10.30
2022-09-27T07:45:46.943Z,10.30
2022-09-27T07:48:16.304Z,10.20
2022-09-27T07:50:43.537Z,10.20
2022-09-27T07:53:13.268Z,10.30
2022-09-27T07:55:40.661Z,10.20
2022-09-27T07:58:10.098Z,10.30
2022-09-27T08:00:38.232Z,10.20
2022-09-27T08:03:10.751Z,10.20
2022-09-27T08:05:37.510Z,10.20
2022-09-27T08:08:05.043Z,10.20
2022-09-27T08:10:32.967Z,10.10
2022-09-27T08:13:03.418Z,10.00
2022-09-27T08:15:32.378Z,10.20
2022-09-27T08:17:59.427Z,10.50
2022-09-27T08:20:26.169Z,10.80
2022-09-27T08:22:53.036Z,11.10
2022-09-27T08:25:22.480Z,11.30
2022-09-27T08:27:57.252Z,11.30
2022-09-27T08:30:24.963Z,11.20
2022-09-27T08:32:59.504Z,11.10
2022-09-27T08:35:29.175Z,11.10
2022-09-27T08:37:59.625Z,11.00
2022-09-27T08:40:39.756Z,10.90
2022-09-27T08:43:20.592Z,10.80
2022-09-27T08:46:19.404Z,10.90
2022-09-27T08:48:50.227Z,10.90
2022-09-27T08:51:18.438Z,10.90
2022-09-27T08:53:53.377Z,10.90
2022-09-27T08:56:24.104Z,10.90
2022-09-27T08:58:58.578Z,11.10
2022-09-27T09:01:28.941Z,11.40
2022-09-27T09:04:00.382Z,11.60
2022-09-27T09:06:43.033Z,12.00
2022-09-27T09:09:33.059Z,12.40
2022-09-27T09:12:41.052Z,12.90
2022-09-27T09:15:19.403Z,13.10
2022-09-27T09:18:01.038Z,12.90
2022-09-27T09:20:52.803Z,12.70
2022-09-27T09:23:30.775Z,12.30
2022-09-27T09:26:12.519Z,12.10
2022-09-27T09:28:45.020Z,11.90
2022-09-27T09:31:31.417Z,11.70
2022-09-27T09:34:09.676Z,11.70
2022-09-27T09:36:45.045Z,11.70
2022-09-27T09:39:17.033Z,11.80
2022-09-27T09:42:11.851Z,12.00
2022-09-27T09:44:49.128Z,12.40
2022-09-27T09:47:35.657Z,12.50
2022-09-27T09:50:14.064Z,12.70
2022-09-27T09:52:46.649Z,13.20
2022-09-27T09:55:22.787Z,13.30
2022-09-27T09:58:14.541Z,13.40
2022-09-27T10:00:45.502Z,13.30
2022-09-27T10:03:12.266Z,13.00
2022-09-27T10:05:42.695Z,12.80
2022-09-27T10:08:17.449Z,12.70
2022-09-27T10:10:44.147Z,12.40
2022-09-27T10:13:17.317Z,12.40
2022-09-27T10:15:52.772Z,12.40
2022-09-27T10:18:20.368Z,12.00
2022-09-27T10:20:57.115Z,11.60
2022-09-27T10:23:25.349Z,11.20
2022-09-27T10:25:58.862Z,10.90
2022-09-27T10:28:33.378Z,10.90
2022-09-27T10:31:09.006Z,10.80
2022-09-27T10:33:39.354Z,10.70
2022-09-27T10:36:26.458Z,10.80
2022-09-27T10:38:55.617Z,10.80
2022-09-27T10:41:34.098Z,10.90
2022-09-27T10:44:32.474Z,10.90
2022-09-27T10:47:06.526Z,11.00
2022-09-27T10:49:38.505Z,11.10
2022-09-27T10:52:24.724Z,11.40
2022-09-27T10:55:01.583Z,11.30
2022-09-27T10:57:30.155Z,11.30
2022-09-27T11:00:37.536Z,11.40
2022-09-27T11:03:08.072Z,11.50
2022-09-27T11:05:39.548Z,11.60
2022-09-27T11:08:18.275Z,11.70
2022-09-27T11:11:00.076Z,11.80
2022-09-27T11:13:32.165Z,11.90
2022-09-27T11:15:58.829Z,11.80
2022-09-27T11:19:00.431Z,11.90
2022-09-27T11:21:45.461Z,11.90
2022-09-27T11:24:27.211Z,12.00
2022-09-27T11:27:12.458Z,12.10
2022-09-27T11:29:56.570Z,12.20
2022-09-27T11:32:50.195Z,12.40
2022-09-27T11:35:51.488Z,12.60
2022-09-27T11:38:52.304Z,12.90
2022-09-27T11:41:21.495Z,13.00
2022-09-27T11:44:13.508Z,13.10
2022-09-27T11:46:42.480Z,13.50
2022-09-27T11:49:25.837Z,13.80
2022-09-27T11:52:04.697Z,14.00
2022-09-27T11:54:47.116Z,14.30
2022-09-27T11:57:26.982Z,14.50
2022-09-27T12:00:10.489Z,14.40
2022-09-27T12:03:11.546Z,14.50
2022-09-27T12:05:58.374Z,14.40
2022-09-27T12:08:39.114Z,14.20
2022-09-27T12:11:18.222Z,13.90
2022-09-27T12:14:18.824Z,14.10
2022-09-27T12:16:47.921Z,14.40
2022-09-27T12:19:50.425Z,14.80
2022-09-27T12:22:40.138Z,15.60
2022-09-27T12:25:20.464Z,15.60
2022-09-27T12:27:58.262Z,15.50
2022-09-27T12:30:25.024Z,15.20
2022-09-27T12:33:19.002Z,14.90
2022-09-27T12:35:54.819Z,14.60
2022-09-27T12:38:49.641Z,14.60
2022-09-27T12:41:21.299Z,14.30
2022-09-27T12:43:50.330Z,14.20
2022-09-27T12:46:40.431Z,14.00
2022-09-27T12:49:21.371Z,13.60
2022-09-27T12:52:01.950Z,13.40
2022-09-27T12:54:46.667Z,13.00
2022-09-27T12:57:40.891Z,12.70
2022-09-27T13:00:25.721Z,12.20
2022-09-27T13:03:26.381Z,11.60
2022-09-27T13:06:24.695Z,11.30
2022-09-27T13:09:06.433Z,11.00
2022-09-27T13:11:41.682Z,10.90
2022-09-27T13:14:24.439Z,11.10
2022-09-27T13:16:51.622Z,11.30
2022-09-27T13:19:36.794Z,11.40
2022-09-27T13:22:05.298Z,11.50
2022-09-27T13:24:32.515Z,11.60
2022-09-27T13:27:01.509Z,11.70
2022-09-27T13:29:30.482Z,11.60
2022-09-27T13:32:00.030Z,11.60
2022-09-27T13:34:42.028Z,11.30
2022-09-27T13:37:39.980Z,11.00
2022-09-27T13:40:16.164Z,10.60
2022-09-27T13:43:05.125Z,10.20
2022-09-27T13:45:37.438Z,10.00
2022-09-27T13:48:16.177Z,10.30
2022-09-27T13:51:11.606Z,10.60
2022-09-27T13:53:40.726Z,9.70
2022-09-27T13:56:36.251Z,9.70
2022-09-27T13:59:14.711Z,9.70
2022-09-27T14:01:51.352Z,9.90
2022-09-27T14:04:22.583Z,10.10
2022-09-27T14:06:52.704Z,10.40
2022-09-27T14:09:37.505Z,10.50
2022-09-27T14:12:37.658Z,10.70
2022-09-27T14:15:07.427Z,11.00
2022-09-27T14:17:34.169Z,11.00
2022-09-27T14:20:03.001Z,11.10
2022-09-27T14:22:29.765Z,11.10
2022-09-27T14:24:57.263Z,11.10
2022-09-27T14:27:26.803Z,11.40
2022-09-27T14:30:28.049Z,11.80
2022-09-27T14:32:58.502Z,12.00
2022-09-27T14:35:46.356Z,12.20
2022-09-27T14:38:37.071Z,12.20
2022-09-27T14:41:07.896Z,11.90
2022-09-27T14:43:36.816Z,11.80
2022-09-27T14:46:06.966Z,11.80
2022-09-27T14:48:40.099Z,11.70
2022-09-27T14:51:14.522Z,11.60
2022-09-27T14:53:48.179Z,11.40
2022-09-27T14:56:22.598Z,11.30
2022-09-27T14:59:02.293Z,11.20
2022-09-27T15:01:29.930Z,11.20
2022-09-27T15:04:03.354Z,11.10
2022-09-27T15:06:30.461Z,11.10
2022-09-27T15:08:59.089Z,11.10
2022-09-27T15:11:27.159Z,11.20
2022-09-27T15:13:55.073Z,11.20
2022-09-27T15:16:23.299Z,11.20
2022-09-27T15:19:03.459Z,11.30
2022-09-27T15:21:36.400Z,11.20
2022-09-27T15:24:04.117Z,11.30
2022-09-27T15:26:42.494Z,11.30
2022-09-27T15:29:20.249Z,11.30
2022-09-27T15:32:08.137Z,11.20
2022-09-27T15:34:35.742Z,11.10
2022-09-27T15:37:05.100Z,11.00
2022-09-27T15:39:39.769Z,11.00
2022-09-27T15:42:17.415Z,10.90
2022-09-27T15:44:45.401Z,10.90
2022-09-27T15:47:51.299Z,11.00
2022-09-27T15:50:18.672Z,10.90
2022-09-27T15:52:47.629Z,10.80
2022-09-27T15:55:15.222Z,10.70
2022-09-27T15:57:43.019Z,10.60
2022-09-27T16:00:16.808Z,10.60
2022-09-27T16:02:43.821Z,10.60
2022-09-27T16:05:10.685Z,10.50
2022-09-27T16:07:37.518Z,10.30
2022-09-27T16:10:17.640Z,10.40
2022-09-27T16:12:47.166Z,10.40
2022-09-27T16:15:14.817Z,10.40
2022-09-27T16:17:42.745Z,10.40
2022-09-27T16:20:20.678Z,10.30
2022-09-27T16:22:47.458Z,10.20
2022-09-27T16:25:15.244Z,10.20
2022-09-27T16:27:42.607Z,9.90
2022-09-27T16:30:09.958Z,10.30
2022-09-27T16:32:47.560Z,9.90
2022-09-27T16:35:15.874Z,9.90
2022-09-27T16:37:42.918Z,9.90
2022-09-27T16:40:11.069Z,9.80
2022-09-27T16:42:38.276Z,9.80
2022-09-27T16:45:10.504Z,9.80
2022-09-27T16:47:38.604Z,9.70
2022-09-27T16:50:24.780Z,9.60
2022-09-27T16:52:52.479Z,9.50
2022-09-27T16:55:21.050Z,9.50
2022-09-27T16:57:49.045Z,9.40
2022-09-27T17:00:16.679Z,9.40
2022-09-27T17:02:47.090Z,9.40
2022-09-27T17:05:15.409Z,9.40
2022-09-27T17:07:42.496Z,9.40
2022-09-27T17:10:09.562Z,9.20
2022-09-27T17:12:36.318Z,9.30
2022-09-27T17:15:03.374Z,9.20
2022-09-27T17:17:30.156Z,9.30
2022-09-27T17:19:56.859Z,9.30
2022-09-27T17:22:23.579Z,9.30
2022-09-27T17:24:51.256Z,9.30
2022-09-27T17:27:18.088Z,9.20
2022-09-27T17:29:44.742Z,9.20
2022-09-27T17:32:13.640Z,9.30
2022-09-27T17:34:43.591Z,9.20
2022-09-27T17:37:11.105Z,9.20
2022-09-27T17:39:38.126Z,9.20
2022-09-27T17:42:05.143Z,9.10
2022-09-27T17:44:31.821Z,9.10
2022-09-27T17:47:36.983Z,9.00
2022-09-27T17:50:22.241Z,9.00
2022-09-27T17:52:49.140Z,8.90
2022-09-27T17:55:16.325Z,8.80
2022-09-27T17:57:43.185Z,8.80
2022-09-27T18:00:10.531Z,8.80
2022-09-27T18:02:37.307Z,8.70
2022-09-27T18:05:05.332Z,8.70
2022-09-27T18:07:33.287Z,8.70
2022-09-27T18:10:00.180Z,8.70
2022-09-27T18:12:32.146Z,8.70
2022-09-27T18:14:59.085Z,8.70
2022-09-27T18:17:25.869Z,8.70
2022-09-27T18:19:53.698Z,8.70
2022-09-27T18:22:20.394Z,8.60
2022-09-27T18:24:47.120Z,8.40
2022-09-27T18:27:18.312Z,8.50
2022-09-27T18:29:45.069Z,8.30
2022-09-27T18:32:11.776Z,8.20
2022-09-27T18:34:39.716Z,8.10
2022-09-27T18:37:06.428Z,8.00
2022-09-27T18:39:33.087Z,7.90
2022-09-27T18:41:59.827Z,7.70
2022-09-27T18:44:26.585Z,7.60
2022-09-27T18:46:53.402Z,7.50
2022-09-27T18:49:23.504Z,7.40
2022-09-27T18:51:53.387Z,7.40
2022-09-27T18:54:21.934Z,7.40
2022-09-27T18:56:50.357Z,7.50
2022-09-27T18:59:17.549Z,7.60
2022-09-27T19:01:47.314Z,7.70
2022-09-27T19:04:21.527Z,7.80
2022-09-27T19:06:50.670Z,8.00
2022-09-27T19:09:17.516Z,8.10
2022-09-27T19:11:44.608Z,8.10
2022-09-27T19:14:16.787Z,8.20
2022-09-27T19:16:44.838Z,8.20
2022-09-27T19:19:11.678Z,8.20
2022-09-27T19:21:38.416Z,8.70
2022-09-27T19:24:05.211Z,8.40
2022-09-27T19:26:31.875Z,8.40
2022-09-27T19:28:58.930Z,8.40
2022-09-27T19:31:26.998Z,8.50
2022-09-27T19:33:59.911Z,8.40
2022-09-27T19:36:27.845Z,8.50
2022-09-27T19:38:56.405Z,8.50
2022-09-27T19:41:23.072Z,8.50
2022-09-27T19:43:53.825Z,8.50
2022-09-27T19:46:21.937Z,8.50
2022-09-27T19:48:49.989Z,8.50
2022-09-27T19:51:19.281Z,8.50
2022-09-27T19:53:46.737Z,8.50
2022-09-27T19:56:14.225Z,8.50
2022-09-27T19:58:42.223Z,8.50
2022-09-27T20:01:16.113Z,8.50
2022-09-27T20:03:44.261Z,8.50
2022-09-27T20:06:15.043Z,8.50
2022-09-27T20:08:42.515Z,8.60
2022-09-27T20:11:12.530Z,8.60
2022-09-27T20:13:39.934Z,8.50
2022-09-27T20:16:12.946Z,8.50
2022-09-27T20:18:42.927Z,8.40
2022-09-27T20:21:09.837Z,8.50
2022-09-27T20:23:37.449Z,8.40
2022-09-27T20:26:13.712Z,8.40
2022-09-27T20:28:42.905Z,8.40
2022-09-27T20:31:12.073Z,8.40
2022-09-27T20:33:41.599Z,8.40
2022-09-27T20:36:20.338Z,8.40
2022-09-27T20:38:53.951Z,8.40
2022-09-27T20:41:25.036Z,8.40
2022-09-27T20:43:54.623Z,8.50
2022-09-27T20:46:23.015Z,8.50
2022-09-27T20:48:54.666Z,8.50
2022-09-27T20:51:22.225Z,8.50
2022-09-27T20:53:51.910Z,8.60
2022-09-27T20:56:26.691Z,8.60
2022-09-27T20:58:55.529Z,8.60
2022-09-27T21:01:23.504Z,8.60
2022-09-27T21:03:54.551Z,8.50
2022-09-27T21:06:23.000Z,8.50
2022-09-27T21:08:50.802Z,8.50
2022-09-27T21:11:18.813Z,8.50
2022-09-27T21:13:46.142Z,8.50
2022-09-27T21:16:16.010Z,8.50
2022-09-27T21:18:43.658Z,8.50
2022-09-27T21:21:12.429Z,8.50
2022-09-27T21:23:44.648Z,8.40
2022-09-27T21:26:20.731Z,8.30
2022-09-27T21:28:52.722Z,8.20
2022-09-27T21:31:22.974Z,8.10
2022-09-27T21:33:55.343Z,8.10
2022-09-27T21:36:24.289Z,8.00
2022-09-27T21:38:51.150Z,8.10
2022-09-27T21:41:18.082Z,8.10
2022-09-27T21:43:46.837Z,8.10
2022-09-27T21:46:14.738Z,8.10
2022-09-27T21:48:43.455Z,8.10
2022-09-27T21:51:11.552Z,8.10
2022-09-27T21:53:40.271Z,8.10
2022-09-27T21:56:08.521Z,8.10
2022-09-27T21:58:36.798Z,8.00
2022-09-27T22:01:12.189Z,7.90
2022-09-27T22:03:40.474Z,7.80
2022-09-27T22:06:10.682Z,7.80
2022-09-27T22:08:37.615Z,7.70
2022-09-27T22:11:05.322Z,7.60
2022-09-27T22:13:32.319Z,7.50
2022-09-27T22:16:04.456Z,7.40
2022-09-27T22:18:31.140Z,7.30
2022-09-27T22:21:12.634Z,7.20
2022-09-27T22:23:39.761Z,7.10
2022-09-27T22:26:21.779Z,7.20
2022-09-27T22:28:48.769Z,7.00
2022-09-27T22:31:18.603Z,7.00
2022-09-27T22:33:54.437Z,6.90
2022-09-27T22:36:22.351Z,6.90
2022-09-27T22:38:49.489Z,6.80
2022-09-27T22:41:16.392Z,6.80
2022-09-27T22:43:43.525Z,6.70
2022-09-27T22:46:10.467Z,6.70
2022-09-27T22:48:37.609Z,6.60
2022-09-27T22:51:05.196Z,6.50
2022-09-27T22:53:32.408Z,6.50
2022-09-27T22:56:07.134Z,6.50
2022-09-27T22:58:34.956Z,6.60
2022-09-27T23:01:09.944Z,6.50
2022-09-27T23:03:37.056Z,6.50
2022-09-27T23:06:04.833Z,6.50
2022-09-27T23:08:36.119Z,6.60
2022-09-27T23:11:08.846Z,6.50
2022-09-27T23:13:38.295Z,6.60
2022-09-27T23:16:07.807Z,6.60
2022-09-27T23:18:35.050Z,6.60
2022-09-27T23:21:03.932Z,6.70
2022-09-27T23:23:31.437Z,6.70
2022-09-27T23:26:00.298Z,6.60
2022-09-27T23:28:27.729Z,6.60
2022-09-27T23:30:54.540Z,6.50
2022-09-27T23:33:22.052Z,6.40
2022-09-27T23:35:50.276Z,6.40
2022-09-27T23:38:17.290Z,6.50
2022-09-27T23:40:44.710Z,6.60
2022-09-27T23:43:11.645Z,6.70
2022-09-27T23:45:38.790Z,6.80
2022-09-27T23:48:05.681Z,6.80
2022-09-27T23:50:32.528Z,6.80
2022-09-27T23:52:59.565Z,6.80
2022-09-27T23:55:26.267Z,6.80
2022-09-27T23:57:52.933Z,6.80
